Time;durP1;ratioP1;P1;durP2;ratioP2;P2;SDS_P1;SDS_P2;PMS_P1;PMS_P2;Temp;Humidity;BMP_temperature;BMP_pressure;BME280_temperature;BME280_humidity;BME280_pressure;Samples;Min_cycle;Max_cycle;Signal;HPM_P1;HPM_P2
2021/05/27 00:01:14;;;;;;;3.57;1.53;;;;;;;;;;5053312;28;20448;-76
2021/05/27 00:03:51;;;;;;;2.60;1.60;;;;;;;;;;5054727;28;20649;-75
2021/05/27 00:06:17;;;;;;;2.43;1.30;;;;;;;;;;5050188;28;20881;-75
2021/05/27 00:08:45;;;;;;;2.00;1.33;;;;;;;;;;5043091;28;20996;-75
2021/05/27 00:11:15;;;;;;;2.13;1.40;;;;;;;;;;5034224;28;20932;-74
2021/05/27 00:13:45;;;;;;;2.00;1.53;;;;;;;;;;5034255;28;20478;-75
2021/05/27 00:16:15;;;;;;;9.53;2.43;;;;;;;;;;5050746;28;20410;-75
2021/05/27 00:18:57;;;;;;;3.07;1.77;;;;;;;;;;5053759;28;20854;-75
2021/05/27 00:21:23;;;;;;;6.70;2.20;;;;;;;;;;5037709;28;20501;-75
2021/05/27 00:23:51;;;;;;;3.30;1.80;;;;;;;;;;5033544;28;20395;-75
2021/05/27 00:26:21;;;;;;;5.80;2.13;;;;;;;;;;5047093;28;20793;-75
2021/05/27 00:28:51;;;;;;;4.77;2.30;;;;;;;;;;5043616;28;20458;-75
2021/05/27 00:31:21;;;;;;;5.38;2.00;;;;;;;;;;5034163;28;20395;-75
2021/05/27 00:34:08;;;;;;;4.17;2.77;;;6.70;1.00;;;;;;5034313;28;20565;-75
2021/05/27 00:36:45;;;;;;;3.93;1.80;;;;;;;;;;5034069;28;20384;-76
2021/05/27 00:39:11;;;;;;;4.70;2.23;;;;;;;;;;5033837;28;20437;-76
2021/05/27 00:41:51;;;;;;;4.07;1.90;;;;;;;;;;5040409;28;20406;-76
2021/05/27 00:47:20;;;;;;;6.00;2.87;;;;;;;;;;5053825;28;21146;-76
2021/05/27 00:49:57;;;;;;;2.40;1.90;;;;;;;;;;5037175;28;20889;-75
2021/05/27 00:52:56;;;;;;;2.90;2.10;;;6.70;1.00;;;;;;5033653;28;20462;-75
2021/05/27 00:55:39;;;;;;;3.23;2.20;;;;;;;;;;5037827;28;20418;-75
2021/05/27 00:58:18;;;;;;;8.67;2.37;;;6.80;1.00;;;;;;5052566;28;20501;-75
2021/05/27 01:00:51;;;;;;;3.60;2.50;;;;;;;;;;5045745;28;20442;-75
2021/05/27 01:03:18;;;;;;;4.43;2.13;;;;;;;;;;5033488;28;20395;-75
2021/05/27 01:05:45;;;;;;;6.27;2.83;;;;;;;;;;5049481;28;20746;-75
2021/05/27 01:08:21;;;;;;;7.73;3.17;;;;;;;;;;5052463;28;20505;-75
2021/05/27 01:10:47;;;;;;;5.70;2.97;;;;;;;;;;5046171;28;20414;-75
2021/05/27 01:13:15;;;;;;;3.83;2.60;;;;;;;;;;5040697;28;20418;-75
2021/05/27 01:15:41;;;;;;;8.20;3.10;;;;;;;;;;5033576;28;20427;-75
2021/05/27 01:18:21;;;;;;;4.53;2.67;;;;;;;;;;5033000;28;20421;-75
2021/05/27 01:20:57;;;;;;;8.40;3.27;;;7.70;1.00;;;;;;5034045;28;20407;-76
2021/05/27 01:24:02;;;;;;;4.77;2.30;;;7.90;1.00;;;;;;5036345;28;20447;-76
2021/05/27 01:27:20;;;;;;;3.37;2.70;;;7.90;1.00;;;;;;5033900;28;20399;-75
2021/05/27 01:30:20;;;;;;;3.83;1.60;;;8.00;1.00;;;;;;5033162;28;20394;-76
2021/05/27 01:32:46;;;;;;;15.13;3.90;;;;;;;;;;5033204;28;20494;-76
2021/05/27 01:35:21;;;;;;;7.47;2.67;;;8.20;1.00;;;;;;5052877;28;20410;-76
2021/05/27 01:37:51;;;;;;;6.03;2.57;;;;;;;;;;5056854;28;20401;-76
2021/05/27 01:40:23;;;;;;;5.30;3.03;;;8.30;1.00;;;;;;5038146;28;20399;-76
2021/05/27 01:43:08;;;;;;;3.83;2.73;;;8.40;1.00;;;;;;5037381;28;20411;-76
2021/05/27 01:45:56;;;;;;;4.47;2.77;;;8.10;1.00;;;;;;5041935;28;20403;-76
2021/05/27 01:51:50;;;;;;;6.10;2.47;;;;;;;;;;5036674;28;20398;-76
2021/05/27 01:54:21;;;;;;;6.13;3.90;;;;;;;;;;5037087;28;20426;-76
2021/05/27 01:56:51;;;;;;;7.23;2.90;;;;;;;;;;5042406;28;20733;-76
2021/05/27 01:59:17;;;;;;;4.63;3.27;;;;;;;;;;5056363;28;20823;-76
2021/05/27 02:01:51;;;;;;;4.80;2.63;;;;;;;;;;5056415;28;20387;-76
2021/05/27 02:04:21;;;;;;;11.30;3.60;;;;;;;;;;5056397;28;20421;-76
2021/05/27 02:07:08;;;;;;;14.20;3.80;;;;;;;;;;5036857;28;20469;-75
2021/05/27 02:09:34;;;;;;;4.53;2.90;;;;;;;;;;5050111;28;20812;-75
2021/05/27 02:12:03;;;;;;;6.03;2.80;;;8.90;1.00;;;;;;5036508;28;20806;-76
2021/05/27 02:14:29;;;;;;;8.70;3.20;;;;;;;;;;5036148;28;20414;-75
2021/05/27 02:16:57;;;;;;;7.80;3.00;;;;;;;;;;5036474;28;20445;-75
2021/05/27 02:19:39;;;;;;;5.40;3.20;;;;;;;;;;5036457;28;20383;-75
2021/05/27 02:22:09;;;;;;;7.17;3.10;;;;;;;;;;5036809;28;20388;-75
2021/05/27 02:24:39;;;;;;;5.47;3.03;;;;;;;;;;5036162;28;20926;-75
2021/05/27 02:27:21;;;;;;;6.47;2.90;;;;;;;;;;5036116;28;20831;-75
2021/05/27 02:29:51;;;;;;;8.30;2.50;;;;;;;;;;5051445;28;20907;-75
2021/05/27 02:32:33;;;;;;;8.60;3.00;;;;;;;;;;5035714;28;20415;-75
2021/05/27 02:35:50;;;;;;;4.47;3.00;;;9.10;1.00;;;;;;5036033;28;20771;-76
2021/05/27 02:38:21;;;;;;;4.13;2.87;;;;;;;;;;5035939;28;20383;-76
2021/05/27 02:40:47;;;;;;;10.60;3.73;;;;;;;;;;5046550;28;20502;-77
2021/05/27 02:43:21;;;;;;;7.50;3.77;;;;;;;;;;5036798;28;20407;-75
2021/05/27 02:45:51;;;;;;;6.43;3.23;;;;;;;;;;5034918;28;20441;-75
2021/05/27 02:48:21;;;;;;;4.27;3.10;;;;;;;;;;5046652;28;20940;-75
2021/05/27 02:50:47;;;;;;;11.73;4.40;;;;;;;;;;5054811;28;20395;-75
2021/05/27 02:53:21;;;;;;;8.10;3.70;;;;;;;;;;5035773;28;20427;-75
2021/05/27 02:55:51;;;;;;;6.30;3.60;;;;;;;;;;5040303;28;20498;-75
2021/05/27 02:58:18;;;;;;;5.23;3.67;;;;;;;;;;5043762;28;20753;-75
2021/05/27 03:00:44;;;;;;;9.23;4.77;;;;;;;;;;5035344;28;20849;-75
2021/05/27 03:03:10;;;;;;;9.10;3.90;;;;;;;;;;5051126;28;20489;-75
2021/05/27 03:05:36;;;;;;;5.20;3.93;;;;;;;;;;5055683;28;20494;-75
2021/05/27 03:08:21;;;;;;;8.00;4.60;;;;;;;;;;5053302;28;20960;-76
2021/05/27 03:10:51;;;;;;;7.43;4.20;;;;;;;;;;5042741;28;20410;-76
2021/05/27 03:13:21;;;;;;;10.90;4.87;;;;;;;;;;5036441;28;20388;-76
2021/05/27 03:15:47;;;;;;;8.00;4.40;;;;;;;;;;5040188;28;20442;-76
2021/05/27 03:18:51;;;;;;;8.40;4.90;;;9.50;1.00;;;;;;5054628;28;20410;-76
2021/05/27 03:21:21;;;;;;;6.70;4.20;;;;;;;;;;5036088;28;20426;-75
2021/05/27 03:23:51;;;;;;;10.57;5.13;;;;;;;;;;5034817;28;20472;-75
2021/05/27 03:26:21;;;;;;;13.40;5.37;;;;;;;;;;5035217;28;20396;-75
2021/05/27 03:28:51;;;;;;;8.73;4.97;;;;;;;;;;5034746;28;20477;-75
2021/05/27 03:31:21;;;;;;;9.37;4.57;;;;;;;;;;5047648;28;20414;-75
2021/05/27 03:33:51;;;;;;;8.83;5.50;;;;;;;;;;5052806;28;20745;-75
2021/05/27 03:36:21;;;;;;;9.23;5.07;;;;;;;;;;5055153;28;20391;-76
2021/05/27 03:38:51;;;;;;;11.13;4.83;;;;;;;;;;5044259;28;20821;-76
2021/05/27 03:41:50;;;;;;;11.80;6.17;;;;;;;;;;5033561;28;20774;-76
2021/05/27 03:44:21;;;;;;;10.07;4.90;;;;;;;;;;5034802;28;20410;-76
2021/05/27 03:46:51;;;;;;;10.60;5.30;;;;;;;;;;5034779;28;20762;-76
2021/05/27 03:49:21;;;;;;;17.87;4.27;;;;;;;;;;5034413;28;20457;-76
2021/05/27 03:51:47;;;;;;;10.17;5.30;;;;;;;;;;5034679;28;20898;-76
2021/05/27 03:54:50;;;;;;;9.40;5.17;;;9.60;1.00;;;;;;5034869;28;20419;-76
2021/05/27 04:01:20;;;;;;;7.53;5.10;;;9.60;1.00;;;;;;5045245;28;20428;-76
2021/05/27 04:12:53;;;;;;;8.23;5.60;;;9.60;1.00;;;;;;5033940;28;20445;-81
2021/05/27 04:16:02;;;;;;;10.37;4.87;;;9.60;1.00;;;;;;5034960;28;20424;-81
2021/05/27 04:18:50;;;;;;;9.20;5.37;;;9.70;1.00;;;;;;5033970;28;20161;-82
2021/05/27 04:24:38;;;;;;;17.27;5.80;;;;;;;;;;5033386;28;20421;-81
2021/05/27 04:30:27;;;;;;;12.80;5.07;;;9.90;1.00;;;;;;5033800;28;21005;-82
2021/05/27 04:35:53;;;;;;;15.50;5.57;;;10.00;1.00;;;;;;5051609;28;20394;-82
2021/05/27 04:38:27;;;;;;;14.03;5.50;;;;;;;;;;4994949;28;20439;-80
2021/05/27 04:40:53;;;;;;;11.83;5.27;;;;;;;;;;4975213;28;20792;-75
2021/05/27 04:43:19;;;;;;;12.10;4.90;;;;;;;;;;4991744;28;20479;-75
2021/05/27 04:49:06;;;;;;;7.00;4.53;;;10.40;1.00;;;;;;5011526;28;20478;-75
2021/05/27 04:52:00;;;;;;;6.17;4.60;;;10.30;1.00;;;;;;5012085;28;20416;-75
2021/05/27 04:55:08;;;;;;;13.20;5.53;;;10.40;1.00;;;;;;5011037;28;20272;-75
2021/05/27 04:57:39;;;;;;;15.00;5.40;;;;;;;;;;4994912;28;20498;-74
2021/05/27 05:00:17;;;;;;;13.93;5.67;;;10.50;1.00;;;;;;5005495;28;20435;-75
2021/05/27 05:02:45;;;;;;;12.70;5.63;;;;;;;;;;4998527;28;20478;-73
2021/05/27 05:05:14;;;;;;;9.87;5.83;;;10.60;1.00;;;;;;5007294;28;20415;-74
2021/05/27 05:07:42;;;;;;;13.73;5.70;;;10.50;1.00;;;;;;4999498;28;20468;-74
2021/05/27 05:13:33;;;;;;;11.40;5.23;;;;;;;;;;5007730;28;20523;-75
2021/05/27 05:19:21;;;;;;;11.67;5.40;;;;;;;;;;5055551;28;20539;-77
2021/05/27 05:21:51;;;;;;;13.70;6.03;;;;;;;;;;5057037;28;20467;-75
2021/05/27 05:25:02;;;;;;;20.83;6.00;;;10.60;1.00;;;;;;5055573;28;20421;-77
2021/05/27 05:27:39;;;;;;;21.23;5.53;;;;;;;;;;5055695;28;20464;-76
2021/05/27 05:33:26;;;;;;;9.20;5.13;;;10.60;1.00;;;;;;5056785;28;20370;-77
2021/05/27 05:35:52;;;;;;;12.37;5.17;;;;;;;;;;5056625;28;20877;-75
2021/05/27 05:38:18;;;;;;;9.93;5.40;;;;;;;;;;5056336;28;20184;-76
2021/05/27 05:40:44;;;;;;;14.90;5.40;;;;;;;;;;5056246;28;20395;-77
2021/05/27 05:43:10;;;;;;;8.93;5.27;;;;;;;;;;5056113;28;20485;-77
2021/05/27 05:45:36;;;;;;;8.50;4.93;;;;;;;;;;5055898;28;20418;-77
2021/05/27 05:48:02;;;;;;;9.33;4.40;;;;;;;;;;5046926;28;20793;-77
2021/05/27 05:53:19;;;;;;;15.70;5.37;;;11.10;1.00;;;;;;5056531;28;20773;-76
2021/05/27 05:55:45;;;;;;;9.53;4.47;;;;;;;;;;5055810;28;20880;-76
2021/05/27 05:58:11;;;;;;;9.77;4.37;;;;;;;;;;5055452;28;20396;-76
2021/05/27 06:00:38;;;;;;;10.90;4.60;;;;;;;;;;5054830;28;20472;-76
2021/05/27 06:03:04;;;;;;;8.17;4.70;;;;;;;;;;5055570;28;20399;-76
2021/05/27 06:05:30;;;;;;;9.80;4.70;;;;;;;;;;5055396;28;20506;-76
2021/05/27 06:07:56;;;;;;;9.77;4.10;;;;;;;;;;5055225;28;20548;-75
2021/05/27 06:10:23;;;;;;;8.47;4.47;;;11.20;1.00;;;;;;5053939;28;20488;-76
2021/05/27 06:12:53;;;;;;;19.57;5.10;;;11.20;1.00;;;;;;5055284;28;20400;-75
2021/05/27 06:15:22;;;;;;;7.00;4.50;;;;;;;;;;5055354;28;20882;-75
2021/05/27 06:17:49;;;;;;;13.00;5.13;;;11.40;1.00;;;;;;5053988;28;20410;-75
2021/05/27 06:20:15;;;;;;;10.57;4.87;;;;;;;;;;5054871;28;20421;-75
2021/05/27 06:22:42;;;;;;;21.73;5.63;;;;;;;;;;5054932;28;20776;-75
2021/05/27 06:25:08;;;;;;;5.77;4.13;;;;;;;;;;5055280;28;20820;-75
2021/05/27 06:27:34;;;;;;;13.17;5.20;;;;;;;;;;5055356;28;20460;-75
2021/05/27 06:30:00;;;;;;;15.90;4.40;;;;;;;;;;5054746;28;20414;-75
2021/05/27 06:32:26;;;;;;;8.57;4.63;;;;;;;;;;5054857;28;20541;-75
2021/05/27 06:34:52;;;;;;;7.30;4.33;;;;;;;;;;5055195;28;20410;-75
2021/05/27 06:37:19;;;;;;;10.80;4.20;;;11.80;1.00;;;;;;5055007;28;20395;-75
2021/05/27 06:39:45;;;;;;;7.23;4.33;;;;;;;;;;5055238;28;20426;-74
2021/05/27 06:42:13;;;;;;;7.60;4.20;;;;;;;;;;5054917;28;20399;-74
2021/05/27 06:44:39;;;;;;;8.07;3.87;;;;;;;;;;5054904;28;20430;-74
2021/05/27 06:47:05;;;;;;;8.97;4.20;;;;;;;;;;5054295;28;20503;-74
2021/05/27 06:49:31;;;;;;;8.40;4.97;;;;;;;;;;5054793;28;20844;-74
2021/05/27 06:51:57;;;;;;;16.50;4.70;;;;;;;;;;5052392;28;20414;-75
2021/05/27 06:54:24;;;;;;;13.63;4.50;;;;;;;;;;5037087;28;20738;-76
2021/05/27 06:56:52;;;;;;;8.20;4.03;;;;;;;;;;5034934;28;20461;-75
2021/05/27 06:59:17;;;;;;;6.67;3.20;;;12.10;1.00;;;;;;5034793;28;20465;-75
2021/05/27 07:01:44;;;;;;;11.60;4.07;;;;;;;;;;5034399;28;20446;-74
2021/05/27 07:04:10;;;;;;;9.63;4.20;;;;;;;;;;5042970;28;20183;-74
2021/05/27 07:06:36;;;;;;;7.30;4.20;;;;;;;;;;5053992;28;20406;-74
2021/05/27 07:09:02;;;;;;;8.37;4.10;;;;;;;;;;5053188;28;20948;-74
2021/05/27 07:11:28;;;;;;;4.97;3.20;;;;;;;;;;5054202;28;20406;-74
2021/05/27 07:13:54;;;;;;;10.27;3.37;;;;;;;;;;5054367;28;20889;-74
2021/05/27 07:16:20;;;;;;;7.90;3.83;;;;;;;;;;5054389;28;20394;-74
2021/05/27 07:18:46;;;;;;;6.37;3.53;;;;;;;;;;5054291;28;20394;-74
2021/05/27 07:21:12;;;;;;;6.97;3.40;;;;;;;;;;5038704;28;20437;-74
2021/05/27 07:23:38;;;;;;;9.93;3.30;;;;;;;;;;5038084;28;20450;-74
2021/05/27 07:26:05;;;;;;;6.43;3.43;;;;;;;;;;5053964;28;20398;-75
2021/05/27 07:28:31;;;;;;;5.27;3.10;;;;;;;;;;5053596;28;20469;-75
2021/05/27 07:30:57;;;;;;;4.10;2.90;;;;;;;;;;5053927;28;20857;-75
2021/05/27 07:33:23;;;;;;;5.07;3.03;;;;;;;;;;5039116;28;20912;-74
2021/05/27 07:35:49;;;;;;;4.77;2.77;;;;;;;;;;5053502;28;20571;-74
2021/05/27 07:38:15;;;;;;;6.50;3.23;;;;;;;;;;5052590;28;20449;-74
2021/05/27 07:40:41;;;;;;;4.07;2.77;;;;;;;;;;5053928;28;20484;-75
2021/05/27 07:43:07;;;;;;;9.23;3.37;;;;;;;;;;5053675;28;20406;-74
2021/05/27 07:45:33;;;;;;;7.13;3.30;;;;;;;;;;5053148;28;20406;-74
2021/05/27 07:47:59;;;;;;;7.97;3.20;;;;;;;;;;5053098;28;20450;-74
2021/05/27 07:50:25;;;;;;;5.70;2.40;;;;;;;;;;5053297;28;20414;-74
2021/05/27 07:52:52;;;;;;;4.03;2.83;;;13.40;1.00;;;;;;5053150;28;20430;-74
2021/05/27 07:55:18;;;;;;;6.20;2.77;;;;;;;;;;5053571;28;20402;-76
2021/05/27 07:57:45;;;;;;;8.30;2.70;;;;;;;;;;5053482;28;20401;-75
2021/05/27 08:00:11;;;;;;;4.23;2.77;;;13.70;1.00;;;;;;5052163;28;20449;-76
2021/05/27 08:02:37;;;;;;;5.33;2.90;;;;;;;;;;5052857;28;20422;-75
2021/05/27 08:05:03;;;;;;;6.03;2.77;;;14.00;1.00;;;;;;5053143;28;20417;-75
2021/05/27 08:07:29;;;;;;;18.83;2.60;;;;;;;;;;5052842;28;20476;-75
2021/05/27 08:09:55;;;;;;;4.63;3.07;;;;;;;;;;5053031;28;20929;-74
2021/05/27 08:12:21;;;;;;;11.57;2.80;;;;;;;;;;5053037;28;20421;-74
2021/05/27 08:14:47;;;;;;;8.90;2.50;;;;;;;;;;5053290;28;20880;-74
2021/05/27 08:17:13;;;;;;;5.87;2.93;;;;;;;;;;5053035;28;20397;-74
2021/05/27 08:19:39;;;;;;;7.67;3.00;;;;;;;;;;5052688;28;20386;-74
2021/05/27 08:22:06;;;;;;;9.27;3.47;;;;;;;;;;5053045;28;20407;-74
2021/05/27 08:24:32;;;;;;;5.20;3.37;;;;;;;;;;5052790;28;20414;-74
2021/05/27 08:26:58;;;;;;;6.87;2.97;;;14.20;1.00;;;;;;5036101;28;20430;-74
2021/05/27 08:29:24;;;;;;;6.67;3.17;;;;;;;;;;5052181;28;20462;-74
2021/05/27 08:31:50;;;;;;;13.07;3.60;;;;;;;;;;5052074;28;20480;-74
2021/05/27 08:34:19;;;;;;;4.30;2.53;;;;;;;;;;5039908;28;20406;-74
2021/05/27 08:36:45;;;;;;;5.17;2.80;;;;;;;;;;5049551;28;20414;-74
2021/05/27 08:39:11;;;;;;;8.47;3.13;;;;;;;;;;5053145;28;20548;-74
2021/05/27 08:41:37;;;;;;;6.00;2.97;;;;;;;;;;5052693;28;20429;-74
2021/05/27 08:44:04;;;;;;;7.70;2.80;;;13.50;1.00;;;;;;5052668;28;20788;-74
2021/05/27 08:46:30;;;;;;;6.83;2.73;;;;;;;;;;5052487;28;20783;-74
2021/05/27 08:48:56;;;;;;;4.43;2.70;;;;;;;;;;5052690;28;20442;-74
2021/05/27 08:51:22;;;;;;;4.67;3.00;;;;;;;;;;5051540;28;20625;-74
2021/05/27 08:53:48;;;;;;;2.90;2.47;;;;;;;;;;5053191;28;20508;-74
2021/05/27 08:56:15;;;;;;;4.57;2.57;;;;;;;;;;5053051;28;20403;-74
2021/05/27 08:58:41;;;;;;;4.47;2.47;;;;;;;;;;5052321;28;20440;-74
2021/05/27 09:01:08;;;;;;;5.07;2.67;;;;;;;;;;5041436;28;20517;-74
2021/05/27 09:03:41;;;;;;;6.93;2.90;;;14.20;1.00;;;;;;5052613;28;20403;-74
2021/05/27 09:06:08;;;;;;;4.97;3.00;;;14.10;1.00;;;;;;5064309;28;20413;-74
2021/05/27 09:08:36;;;;;;;4.40;2.60;;;;;;;;;;5065349;28;20465;-74
2021/05/27 09:11:13;;;;;;;4.90;2.43;;;14.60;1.00;;;;;;5052595;28;20409;-75
2021/05/27 09:13:58;;;;;;;9.63;3.33;;;;;;;;;;5052134;28;20406;-74
2021/05/27 09:16:25;;;;;;;5.30;2.60;;;;;;;;;;5051978;28;20426;-74
2021/05/27 09:18:51;;;;;;;4.33;2.90;;;;;;;;;;5052536;28;20472;-74
2021/05/27 09:21:40;;;;;;;6.13;2.60;;;14.60;1.00;;;;;;5052117;28;20933;-74
2021/05/27 09:24:07;;;;;;;3.50;2.57;;;;;;;;;;5050838;28;20456;-74
2021/05/27 09:26:48;;;;;;;4.17;2.40;;;14.90;1.00;;;;;;5051430;28;20828;-74
2021/05/27 09:29:14;;;;;;;5.70;2.43;;;;;;;;;;5051955;28;20476;-73
2021/05/27 09:32:01;;;;;;;8.73;2.53;;;15.40;1.00;;;;;;5052037;28;20909;-74
2021/05/27 09:34:51;;;;;;;2.83;2.23;;;15.80;1.00;;;;;;5052163;28;20806;-74
2021/05/27 09:37:19;;;;;;;6.57;2.70;;;15.90;1.00;;;;;;5050184;28;20409;-77
2021/05/27 09:39:47;;;;;;;4.43;2.43;;;;;;;;;;5052304;28;20414;-76
2021/05/27 09:42:13;;;;;;;5.57;2.40;;;;;;;;;;5052195;28;20468;-76
2021/05/27 09:44:39;;;;;;;5.53;2.23;;;;;;;;;;5052146;28;20379;-76
2021/05/27 09:47:06;;;;;;;4.57;2.50;;;;;;;;;;5043052;28;20797;-76
2021/05/27 09:49:34;;;;;;;12.33;3.07;;;;;;;;;;5032271;28;20429;-76
2021/05/27 09:52:17;;;;;;;4.53;2.60;;;17.20;1.00;;;;;;5032122;28;20404;-77
2021/05/27 09:54:53;;;;;;;6.43;2.50;;;;;;;;;;5034286;28;20402;-76
2021/05/27 09:57:20;;;;;;;3.73;1.90;;;;;;;;;;5054456;28;20457;-77
2021/05/27 09:59:46;;;;;;;5.17;2.70;;;;;;;;;;5055427;28;20403;-77
2021/05/27 10:02:13;;;;;;;6.73;2.30;;;;;;;;;;5055726;28;20766;-77
2021/05/27 10:04:58;;;;;;;5.33;2.37;;;;;;;;;;5055448;28;20403;-77
2021/05/27 10:07:46;;;;;;;2.43;2.10;;;17.30;1.00;;;;;;5054100;28;20925;-77
2021/05/27 10:10:14;;;;;;;6.17;2.37;;;17.30;1.00;;;;;;5055955;28;20369;-76
2021/05/27 10:12:45;;;;;;;7.10;2.47;;;17.60;1.00;;;;;;5042845;28;20845;-77
2021/05/27 10:15:15;;;;;;;5.93;2.33;;;17.60;1.00;;;;;;5035488;28;20411;-76
2021/05/27 10:17:43;;;;;;;4.77;2.33;;;17.30;1.00;;;;;;5035453;28;20423;-76
2021/05/27 10:20:12;;;;;;;2.30;1.80;;;17.20;1.00;;;;;;5035478;28;20393;-76
2021/05/27 10:22:38;;;;;;;14.27;3.07;;;;;;;;;;5048014;28;20439;-76
2021/05/27 10:25:05;;;;;;;2.53;2.03;;;;;;;;;;5055353;28;20766;-75
2021/05/27 10:27:31;;;;;;;3.97;2.37;;;;;;;;;;5054723;28;20586;-76
2021/05/27 10:29:58;;;;;;;3.57;2.10;;;17.20;1.00;;;;;;5054666;28;20525;-77
2021/05/27 10:32:26;;;;;;;5.07;2.27;;;;;;;;;;5054818;28;20414;-73
2021/05/27 10:34:52;;;;;;;2.77;1.90;;;;;;;;;;5054834;28;20418;-75
2021/05/27 10:37:37;;;;;;;3.50;1.83;;;17.00;1.00;;;;;;5054729;28;20385;-75
2021/05/27 10:40:23;;;;;;;91.83;8.20;;;;;;;;;;5047682;28;20962;-75
2021/05/27 10:43:04;;;;;;;10.30;2.20;;;;;;;;;;5041342;28;20466;-75
2021/05/27 10:45:36;;;;;;;3.27;1.63;;;;;;;;;;5054695;28;20382;-75
2021/05/27 10:48:14;;;;;;;3.93;1.83;;;17.40;1.00;;;;;;5069864;28;20494;-75
2021/05/27 10:50:54;;;;;;;3.90;1.93;;;17.90;1.00;;;;;;5056540;28;20791;-75
2021/05/27 10:53:42;;;;;;;2.80;1.80;;;;;;;;;;5050956;28;20435;-75
2021/05/27 10:56:08;;;;;;;6.27;2.07;;;;;;;;;;5054404;28;20412;-75
2021/05/27 10:58:51;;;;;;;12.27;2.00;;;;;;;;;;5054337;28;20473;-75
2021/05/27 11:01:19;;;;;;;5.70;1.77;;;18.00;1.00;;;;;;5054028;28;20416;-75
2021/05/27 11:03:54;;;;;;;2.53;1.67;;;17.80;1.00;;;;;;5054392;28;20838;-75
2021/05/27 11:06:20;;;;;;;4.20;1.90;;;;;;;;;;5052115;28;20420;-75
2021/05/27 11:08:47;;;;;;;2.87;2.00;;;;;;;;;;5052149;28;20501;-74
2021/05/27 11:11:35;;;;;;;2.77;1.60;;;18.10;1.00;;;;;;5053571;28;20378;-75
2021/05/27 11:14:19;;;;;;;7.53;2.33;;;17.90;1.00;;;;;;5035538;28;20451;-75
2021/05/27 11:17:04;;;;;;;3.80;1.67;;;;;;;;;;5054194;28;20370;-75
2021/05/27 11:27:36;;;;;;;4.83;1.60;;;;;;;;;;5054494;28;20475;-75
2021/05/27 11:30:21;;;;;;;4.17;1.87;;;;;;;;;;5052148;28;20479;-75
2021/05/27 11:32:51;;;;;;;2.60;1.80;;;;;;;;;;5053667;28;20414;-75
2021/05/27 11:35:18;;;;;;;17.33;3.13;;;16.30;1.00;;;;;;5057303;28;20373;-75
2021/05/27 11:37:46;;;;;;;3.20;1.87;;;16.00;1.00;;;;;;5052295;28;20514;-75
2021/05/27 11:40:14;;;;;;;5.90;2.00;;;15.90;1.00;;;;;;5053241;28;20508;-75
2021/05/27 11:42:41;;;;;;;6.03;2.10;;;15.80;1.00;;;;;;5043085;28;21001;-75
2021/05/27 11:45:08;;;;;;;3.80;2.10;;;15.70;1.00;;;;;;5033146;28;20799;-75
2021/05/27 11:47:35;;;;;;;6.60;2.50;;;;;;;;;;5049999;28;20523;-75
2021/05/27 11:50:07;;;;;;;7.13;2.63;;;;;;;;;;5052517;28;20405;-75
2021/05/27 11:52:33;;;;;;;5.70;2.57;;;15.30;1.00;;;;;;5053130;28;20436;-75
2021/05/27 11:54:59;;;;;;;5.20;2.43;;;;;;;;;;5053361;28;20417;-75
2021/05/27 11:57:45;;;;;;;6.03;2.77;;;;;;;;;;5052916;28;20417;-75
2021/05/27 12:00:13;;;;;;;4.50;3.00;;;14.80;1.00;;;;;;5049346;28;20851;-76
2021/05/27 12:02:46;;;;;;;6.70;2.67;;;;;;;;;;5049292;28;20411;-76
2021/05/27 12:05:31;;;;;;;11.80;3.27;;;;;;;;;;5053149;28;20386;-76
2021/05/27 12:07:57;;;;;;;6.10;2.00;;;;;;;;;;5053238;28;20453;-76
2021/05/27 12:10:35;;;;;;;4.40;2.07;;;14.60;1.00;;;;;;5052366;28;20729;-76
2021/05/27 12:13:03;;;;;;;8.40;1.70;;;14.70;1.00;;;;;;5036293;28;20752;-75
2021/05/27 12:15:29;;;;;;;2.20;1.47;;;14.80;1.00;;;;;;5033283;28;20400;-76
2021/05/27 12:17:57;;;;;;;6.20;1.87;;;;;;;;;;5035505;28;20719;-76
2021/05/27 12:20:29;;;;;;;24.73;3.00;;;;;;;;;;5047278;28;20400;-76
2021/05/27 12:23:00;;;;;;;51.13;4.77;;;;;;;;;;5043325;28;20406;-76
2021/05/27 12:25:28;;;;;;;5.73;2.00;;;15.40;1.00;;;;;;5047175;28;20434;-76
2021/05/27 12:27:55;;;;;;;13.97;2.53;;;;;;;;;;5049095;28;20502;-75
2021/05/27 12:30:32;;;;;;;7.17;1.50;;;15.80;1.00;;;;;;5052221;28;20389;-75
2021/05/27 12:32:59;;;;;;;2.97;1.73;;;16.00;1.00;;;;;;5053384;28;20388;-75
2021/05/27 12:35:45;;;;;;;12.37;2.70;;;16.00;1.00;;;;;;5051767;28;20429;-75
2021/05/27 12:38:28;;;;;;;3.50;2.07;;;16.00;1.00;;;;;;5051975;28;20442;-75
2021/05/27 12:41:07;;;;;;;3.73;2.13;;;16.10;1.00;;;;;;5052004;28;20437;-75
2021/05/27 12:43:46;;;;;;;11.97;2.87;;;16.10;1.00;;;;;;5046499;28;20409;-75
2021/05/27 12:46:12;;;;;;;4.07;2.20;;;15.90;1.00;;;;;;5046997;28;20404;-75
2021/05/27 12:48:47;;;;;;;4.20;1.60;;;;;;;;;;5052510;28;20819;-75
2021/05/27 12:51:13;;;;;;;2.13;1.50;;;;;;;;;;5052298;28;20414;-75
2021/05/27 12:53:49;;;;;;;4.67;2.00;;;;;;;;;;5052893;28;20442;-75
2021/05/27 12:56:22;;;;;;;5.13;1.40;;;14.90;1.00;;;;;;5049709;28;20441;-74
2021/05/27 12:58:50;;;;;;;6.33;2.07;;;14.80;1.00;;;;;;5052466;28;20754;-75
2021/05/27 13:01:56;;;;;;;11.43;2.17;;;14.50;1.00;;;;;;5052176;28;21537;-75
2021/05/27 13:04:23;;;;;;;2.83;1.40;;;;;;;;;;4979711;28;20955;-75
2021/05/27 13:06:49;;;;;;;4.40;1.60;;;;;;;;;;4989458;28;20544;-74
2021/05/27 13:09:17;;;;;;;5.10;1.87;;;;;;;;;;4966130;28;20496;-74
2021/05/27 13:11:45;;;;;;;4.03;1.67;;;13.90;1.00;;;;;;4990151;28;20421;-76
2021/05/27 13:14:45;;;;;;;6.87;1.60;;;13.90;1.00;;;;;;4989314;28;20511;-76
2021/05/27 13:17:22;;;;;;;3.37;1.70;;;;;;;;;;4992180;28;20430;-76
2021/05/27 13:19:56;;;;;;;2.57;1.23;;;14.10;1.00;;;;;;4989303;28;20982;-80
2021/05/27 13:22:34;;;;;;;5.93;1.40;;;;;;;;;;4982879;28;20764;-77
2021/05/27 13:28:03;;;;;;;14.13;3.07;;;;;;;;;;4990248;28;20446;-76
2021/05/27 13:30:45;;;;;;;7.93;2.20;;;;;;;;;;4990297;28;20439;-77
2021/05/27 13:33:11;;;;;;;2.23;1.60;;;;;;;;;;4976189;28;20441;-76
2021/05/27 13:35:39;;;;;;;6.87;1.93;;;15.10;1.00;;;;;;4981926;28;20783;-77
2021/05/27 13:38:35;;;;;;;3.00;1.80;;;15.20;1.00;;;;;;4995552;28;20428;-76
2021/05/27 13:41:09;;;;;;;3.03;2.00;;;;;;;;;;4994208;28;20428;-76
2021/05/27 13:43:45;;;;;;;17.30;2.93;;;;;;;;;;4995292;28;20396;-76
2021/05/27 13:46:27;;;;;;;4.10;1.93;;;;;;;;;;4993202;28;20437;-77
2021/05/27 13:48:53;;;;;;;4.80;2.20;;;;;;;;;;4995167;28;20496;-77
2021/05/27 13:51:27;;;;;;;3.10;2.03;;;;;;;;;;4995497;28;20447;-76
2021/05/27 13:54:03;;;;;;;9.90;2.60;;;;;;;;;;4995107;28;20828;-76
2021/05/27 13:56:29;;;;;;;2.73;1.90;;;;;;;;;;4989135;28;20829;-77
2021/05/27 13:58:55;;;;;;;4.47;2.23;;;16.10;1.00;;;;;;4994661;28;20428;-76
2021/05/27 14:01:21;;;;;;;3.70;2.00;;;16.40;1.00;;;;;;4995206;28;20384;-75
2021/05/27 14:03:57;;;;;;;2.00;1.90;;;;;;;;;;4995118;28;20585;-80
2021/05/27 14:06:23;;;;;;;5.50;2.03;;;;;;;;;;4993862;28;20406;-81
2021/05/27 14:08:49;;;;;;;3.73;2.10;;;;;;;;;;4979430;28;21196;-78
2021/05/27 14:11:21;;;;;;;11.10;2.67;;;;;;;;;;4978543;28;20453;-77
2021/05/27 14:16:51;;;;;;;5.67;2.00;;;;;;;;;;5010812;28;20387;-78
2021/05/27 14:19:17;;;;;;;4.00;2.10;;;;;;;;;;5058728;28;20389;-74
2021/05/27 14:21:43;;;;;;;4.40;2.47;;;;;;;;;;5067339;28;20418;-76
2021/05/27 14:24:21;;;;;;;5.33;2.33;;;;;;;;;;5055729;28;20727;-76
2021/05/27 14:27:09;;;;;;;2.93;2.10;;;;;;;;;;5054355;28;20878;-76
2021/05/27 14:29:35;;;;;;;3.93;2.40;;;;;;;;;;5045555;28;20453;-76
2021/05/27 14:32:03;;;;;;;5.57;2.53;;;;;;;;;;5036127;28;20378;-76
2021/05/27 14:34:33;;;;;;;9.03;2.73;;;;;;;;;;5049666;28;20415;-75
2021/05/27 14:37:04;;;;;;;4.00;2.50;;;16.80;1.00;;;;;;5038634;28;20401;-76
2021/05/27 14:39:33;;;;;;;6.60;2.60;;;;;;;;;;5035570;28;20476;-76
2021/05/27 14:42:00;;;;;;;3.70;2.73;;;;;;;;;;5035654;28;20398;-76
2021/05/27 14:44:27;;;;;;;3.17;2.13;;;;;;;;;;5046291;28;20429;-76
2021/05/27 14:46:57;;;;;;;7.00;2.53;;;;;;;;;;5040577;28;20508;-76
2021/05/27 14:49:23;;;;;;;2.77;1.87;;;;;;;;;;5055543;28;20447;-77
2021/05/27 14:51:57;;;;;;;6.93;2.33;;;;;;;;;;5055697;28;20485;-77
2021/05/27 14:54:24;;;;;;;9.17;2.77;;;;;;;;;;5054500;28;20413;-77
2021/05/27 14:56:52;;;;;;;4.33;2.30;;;16.10;1.00;;;;;;5055091;28;20433;-75
2021/05/27 14:59:18;;;;;;;7.90;2.80;;;;;;;;;;5054254;28;20421;-77
2021/05/27 15:01:44;;;;;;;2.57;1.90;;;;;;;;;;5055694;28;20380;-78
2021/05/27 15:04:10;;;;;;;4.17;2.77;;;;;;;;;;5054039;28;20451;-79
2021/05/27 15:06:45;;;;;;;2.43;2.23;;;;;;;;;;5055107;28;20489;-79
2021/05/27 15:09:11;;;;;;;3.70;2.10;;;;;;;;;;5055154;28;20450;-79
2021/05/27 15:12:20;;;;;;;8.37;2.07;;;15.40;1.00;;;;;;5055404;28;20746;-79
2021/05/27 15:14:51;;;;;;;4.10;2.60;;;;;;;;;;5055286;28;20385;-79
2021/05/27 15:17:33;;;;;;;7.77;2.60;;;;;;;;;;5054787;28;20727;-78
2021/05/27 15:20:10;;;;;;;2.70;1.83;;;;;;;;;;5055000;28;20886;-78
2021/05/27 15:22:57;;;;;;;7.70;2.10;;;15.60;1.00;;;;;;5054763;28;20369;-78
2021/05/27 15:25:28;;;;;;;3.57;2.30;;;;;;;;;;5054718;28;20735;-78
2021/05/27 15:27:57;;;;;;;3.70;2.20;;;;;;;;;;5055015;28;21022;-74
2021/05/27 15:30:24;;;;;;;8.20;2.67;;;;;;;;;;5053600;28;20475;-76
2021/05/27 15:32:50;;;;;;;7.10;2.53;;;;;;;;;;5054912;28;20408;-75
2021/05/27 15:35:17;;;;;;;6.50;3.50;;;;;;;;;;5049597;28;20769;-76